Time;durP1;ratioP1;P1;durP2;ratioP2;P2;SDS_P1;SDS_P2;PMS_P1;PMS_P2;Temp;Humidity;BMP_temperature;BMP_pressure;BME280_temperature;BME280_humidity;BME280_pressure;Samples;Min_cycle;Max_cycle;Signal;HPM_P1;HPM_P2
2023/03/15 00:01:53;;;;;;;3.53;0.50;;;2.90;99.90;;;;;;5034918;28;20050;-73
2023/03/15 00:04:20;;;;;;;4.40;0.57;;;2.80;99.90;;;;;;5017015;28;20374;-73
2023/03/15 00:06:46;;;;;;;1.50;0.60;;;2.60;99.90;;;;;;5033532;28;20092;-73
2023/03/15 00:09:12;;;;;;;3.50;0.50;;;2.90;99.90;;;;;;5034439;28;20056;-74
2023/03/15 00:11:37;;;;;;;2.55;0.50;;;2.70;99.90;;;;;;5033076;28;20038;-73
2023/03/15 00:14:04;;;;;;;2.90;0.50;;;3.00;99.90;;;;;;5034179;28;20045;-73
2023/03/15 00:16:31;;;;;;;4.10;0.60;;;3.00;99.90;;;;;;5033982;28;20434;-73
2023/03/15 00:18:57;;;;;;;3.92;1.00;;;2.80;99.90;;;;;;5019836;28;20452;-76
2023/03/15 00:21:23;;;;;;;2.03;0.65;;;3.70;99.90;;;;;;5054042;28;20052;-74
2023/03/15 00:23:49;;;;;;;4.43;0.70;;;2.80;99.90;;;;;;5053978;28;20110;-74
2023/03/15 00:26:15;;;;;;;4.20;0.60;;;2.80;99.90;;;;;;5054489;28;20048;-74
2023/03/15 00:28:41;;;;;;;3.50;0.60;;;2.60;99.90;;;;;;5036131;28;20060;-75
2023/03/15 00:31:22;;;;;;;4.15;0.50;;;3.10;99.90;;;;;;5036160;28;20380;-74
2023/03/15 00:33:48;;;;;;;2.15;0.50;;;3.40;99.90;;;;;;5036337;28;20044;-74
2023/03/15 00:36:15;;;;;;;3.75;0.68;;;3.00;99.90;;;;;;5035972;28;20083;-73
2023/03/15 00:38:42;;;;;;;5.50;0.63;;;2.80;99.90;;;;;;5053835;28;20055;-73
2023/03/15 00:41:14;;;;;;;4.03;0.98;;;2.60;99.90;;;;;;5036082;28;20071;-74
2023/03/15 00:43:40;;;;;;;7.65;0.60;;;3.10;99.90;;;;;;5053625;28;20056;-73
2023/03/15 00:46:06;;;;;;;3.65;0.57;;;2.60;99.90;;;;;;5035781;28;20041;-73
2023/03/15 00:48:34;;;;;;;2.67;0.65;;;2.90;99.90;;;;;;5036498;28;20459;-74
2023/03/15 00:51:08;;;;;;;3.50;0.57;;;2.90;99.90;;;;;;5036056;28;20053;-73
2023/03/15 00:53:36;;;;;;;3.03;0.52;;;2.60;99.90;;;;;;5035836;28;20045;-74
2023/03/15 00:56:19;;;;;;;3.22;0.70;;;3.50;99.90;;;;;;5053624;28;20044;-74
2023/03/15 00:58:45;;;;;;;4.45;0.55;;;2.80;99.90;;;;;;5053718;28;20079;-73
2023/03/15 01:01:21;;;;;;;3.30;0.65;;;3.00;99.90;;;;;;5019644;28;20045;-73
2023/03/15 01:03:47;;;;;;;3.30;0.50;;;2.60;99.90;;;;;;5019856;28;20164;-73
2023/03/15 01:06:15;;;;;;;4.22;0.60;;;2.50;99.90;;;;;;5053419;28;20052;-73
2023/03/15 01:08:42;;;;;;;4.85;0.60;;;2.60;99.90;;;;;;5035609;28;20057;-74
2023/03/15 01:11:11;;;;;;;3.50;0.68;;;2.50;99.90;;;;;;5036655;28;20053;-73
2023/03/15 01:13:37;;;;;;;2.42;0.65;;;2.80;99.90;;;;;;5053315;28;20041;-73
2023/03/15 01:16:04;;;;;;;3.35;0.60;;;2.70;99.90;;;;;;5019468;28;20060;-73
2023/03/15 01:18:30;;;;;;;1.50;0.50;;;2.30;99.90;;;;;;5056820;28;20056;-72
2023/03/15 01:20:55;;;;;;;2.08;0.50;;;3.20;99.90;;;;;;5040136;28;20056;-73
2023/03/15 01:23:21;;;;;;;2.72;0.47;;;3.20;99.90;;;;;;5057365;28;20211;-73
2023/03/15 01:25:47;;;;;;;5.07;0.70;;;3.40;99.90;;;;;;5039576;28;20396;-73
2023/03/15 01:28:13;;;;;;;3.78;0.50;;;3.10;99.90;;;;;;5057881;28;20041;-73
2023/03/15 01:30:38;;;;;;;3.80;0.55;;;3.70;99.90;;;;;;5057193;28;20041;-74
2023/03/15 01:33:04;;;;;;;8.05;1.00;;;3.10;99.90;;;;;;5057186;28;20049;-73
2023/03/15 01:35:30;;;;;;;3.33;0.50;;;2.60;99.90;;;;;;5039609;28;20071;-74
2023/03/15 01:37:56;;;;;;;5.03;0.63;;;3.00;99.90;;;;;;5057082;28;20041;-73
2023/03/15 01:40:21;;;;;;;2.05;0.60;;;2.80;99.90;;;;;;5057027;28;20388;-73
2023/03/15 01:43:17;;;;;;;2.55;0.50;;;2.50;99.90;;;;;;5056904;28;20041;-73
2023/03/15 01:46:18;;;;;;;4.80;0.65;;;2.60;99.90;;;;;;5037587;28;20057;-73
2023/03/15 01:49:11;;;;;;;4.80;1.17;;;2.40;99.90;;;;;;5039978;28;20041;-73
2023/03/15 01:51:49;;;;;;;2.90;0.40;;;2.70;99.90;;;;;;5032449;28;20096;-73
2023/03/15 01:55:00;;;;;;;6.32;0.65;;;2.70;99.90;;;;;;5057413;28;20044;-73
2023/03/15 01:57:35;;;;;;;5.15;0.50;;;3.10;99.90;;;;;;4959818;28;20050;-73
2023/03/15 02:00:11;;;;;;;2.80;0.30;;;2.80;99.90;;;;;;5027704;28;20438;-72
2023/03/15 02:02:48;;;;;;;2.85;0.60;;;2.40;99.90;;;;;;5039108;28;20044;-74
2023/03/15 02:05:19;;;;;;;3.08;0.30;;;2.40;99.90;;;;;;5056652;28;20091;-73
2023/03/15 02:07:49;;;;;;;2.22;0.57;;;3.00;99.90;;;;;;5039307;28;20045;-73
2023/03/15 02:10:24;;;;;;;4.13;0.63;;;2.70;99.90;;;;;;5038708;28;20045;-73
2023/03/15 02:12:52;;;;;;;2.78;0.38;;;2.30;99.90;;;;;;5039104;28;20049;-73
2023/03/15 02:15:18;;;;;;;3.92;0.50;;;2.70;99.90;;;;;;5039116;28;20049;-72
2023/03/15 02:17:46;;;;;;;3.53;0.45;;;2.50;99.90;;;;;;5039136;28;20101;-73
2023/03/15 02:20:28;;;;;;;5.00;0.52;;;2.90;99.90;;;;;;5035088;28;20057;-72
2023/03/15 02:22:59;;;;;;;4.38;0.50;;;2.50;99.90;;;;;;5036879;28;20508;-73
2023/03/15 02:25:27;;;;;;;3.28;0.60;;;2.60;99.90;;;;;;5036249;28;20093;-72
2023/03/15 02:27:54;;;;;;;4.28;0.45;;;2.70;99.90;;;;;;5035215;28;20041;-72
2023/03/15 02:30:20;;;;;;;4.80;0.50;;;2.40;99.90;;;;;;5035134;28;20080;-72
2023/03/15 02:32:45;;;;;;;4.25;0.60;;;2.80;99.90;;;;;;5036242;28;20077;-71
2023/03/15 02:35:11;;;;;;;5.15;0.50;;;2.30;99.90;;;;;;5036042;28;20099;-71
2023/03/15 02:37:37;;;;;;;3.58;0.60;;;2.50;99.90;;;;;;5034917;28;20045;-71
2023/03/15 02:40:16;;;;;;;8.77;0.90;;;3.30;99.90;;;;;;5035432;28;20128;-71
2023/03/15 02:42:42;;;;;;;3.40;0.50;;;2.50;99.90;;;;;;5034758;28;20045;-72
2023/03/15 02:45:08;;;;;;;5.20;0.40;;;2.70;99.90;;;;;;5035163;28;20060;-71
2023/03/15 02:47:33;;;;;;;4.85;0.40;;;2.30;99.90;;;;;;5036039;28;20077;-71
2023/03/15 02:49:59;;;;;;;2.45;0.50;;;2.50;99.90;;;;;;5034764;28;20139;-71
2023/03/15 02:52:25;;;;;;;6.03;0.60;;;2.60;99.90;;;;;;5035864;28;20199;-72
2023/03/15 02:54:52;;;;;;;2.72;0.40;;;2.30;99.90;;;;;;5035906;28;20052;-72
2023/03/15 02:57:19;;;;;;;3.13;0.40;;;2.40;99.90;;;;;;5036069;28;20045;-73
2023/03/15 02:59:45;;;;;;;6.05;0.57;;;2.70;99.90;;;;;;5034753;28;20128;-72
2023/03/15 03:02:11;;;;;;;4.35;0.52;;;2.80;99.90;;;;;;5034173;28;20179;-72
2023/03/15 03:04:38;;;;;;;5.43;0.60;;;2.60;99.90;;;;;;5034542;28;20045;-72
2023/03/15 03:07:04;;;;;;;3.33;0.47;;;2.80;99.90;;;;;;5034929;28;20061;-72
2023/03/15 03:09:30;;;;;;;1.90;0.50;;;2.40;99.90;;;;;;5035599;28;20366;-71
2023/03/15 03:11:55;;;;;;;7.28;0.70;;;2.40;99.90;;;;;;5034638;28;20038;-72
2023/03/15 03:14:22;;;;;;;5.18;0.60;;;2.70;99.90;;;;;;5034184;28;20045;-72
2023/03/15 03:16:49;;;;;;;4.32;0.50;;;2.50;99.90;;;;;;5034391;28;20124;-72
2023/03/15 03:19:15;;;;;;;1.65;0.55;;;2.50;99.90;;;;;;5040709;28;20069;-72
2023/03/15 03:21:43;;;;;;;3.80;0.50;;;2.80;99.90;;;;;;5054765;28;20053;-72
2023/03/15 03:24:10;;;;;;;5.40;0.60;;;2.50;99.90;;;;;;5021429;28;20524;-72
2023/03/15 03:26:37;;;;;;;4.95;0.47;;;3.30;99.90;;;;;;5055031;28;20049;-72
2023/03/15 03:29:04;;;;;;;3.35;0.77;;;2.50;99.90;;;;;;5055669;28;20446;-72
2023/03/15 03:31:33;;;;;;;2.42;0.30;;;2.70;99.90;;;;;;5037477;28;20052;-72
2023/03/15 03:33:59;;;;;;;5.43;0.50;;;2.70;99.90;;;;;;5037451;28;20144;-73
2023/03/15 03:36:25;;;;;;;1.80;0.40;;;2.60;99.90;;;;;;5054979;28;20533;-72
2023/03/15 03:38:52;;;;;;;3.55;0.50;;;2.20;99.90;;;;;;5055003;28;20045;-73
2023/03/15 03:41:19;;;;;;;6.40;0.40;;;2.50;99.90;;;;;;5054492;28;20099;-72
2023/03/15 03:43:45;;;;;;;2.63;0.43;;;2.70;99.90;;;;;;5055615;28;20127;-71
2023/03/15 03:46:11;;;;;;;2.40;0.82;;;2.60;99.90;;;;;;5054918;28;20179;-73
2023/03/15 03:48:36;;;;;;;8.27;0.60;;;2.20;99.90;;;;;;5055498;28;20428;-72
2023/03/15 03:51:02;;;;;;;6.05;0.52;;;2.60;99.90;;;;;;5037040;28;20129;-72
2023/03/15 03:53:28;;;;;;;2.83;1.20;;;2.00;99.90;;;;;;5037090;28;20205;-73
2023/03/15 03:55:54;;;;;;;7.65;0.98;;;2.80;99.90;;;;;;5037027;28;20275;-71
2023/03/15 03:58:20;;;;;;;5.97;0.55;;;2.60;99.90;;;;;;5036909;28;20049;-73
2023/03/15 04:00:46;;;;;;;6.97;0.70;;;2.80;99.90;;;;;;5037112;28;20056;-72
2023/03/15 04:03:12;;;;;;;2.95;0.43;;;2.30;99.90;;;;;;5054372;28;20132;-72
2023/03/15 04:05:38;;;;;;;7.65;1.08;;;2.50;99.90;;;;;;5054278;28;20477;-72
2023/03/15 04:08:04;;;;;;;3.33;0.55;;;2.10;99.90;;;;;;5054498;28;20044;-73
2023/03/15 04:10:33;;;;;;;2.70;0.98;;;2.00;99.90;;;;;;5036630;28;20052;-73
2023/03/15 04:13:00;;;;;;;3.10;0.60;;;2.50;99.90;;;;;;5036518;28;20056;-72
2023/03/15 04:15:26;;;;;;;7.57;0.75;;;2.10;99.90;;;;;;5054071;28;20047;-72
2023/03/15 04:17:54;;;;;;;3.05;0.70;;;2.60;99.90;;;;;;5053888;28;20045;-73
2023/03/15 04:20:25;;;;;;;6.95;0.60;;;2.30;99.90;;;;;;5053707;28;20513;-71
2023/03/15 04:22:52;;;;;;;6.35;0.63;;;2.10;99.90;;;;;;5053990;28;20128;-72
2023/03/15 04:25:21;;;;;;;7.38;0.60;;;2.10;99.90;;;;;;5054551;28;20103;-71
2023/03/15 04:27:57;;;;;;;5.85;0.63;;;2.20;99.90;;;;;;5053971;28;20053;-71
2023/03/15 04:30:27;;;;;;;3.58;0.55;;;2.60;99.90;;;;;;5036250;28;20045;-71
2023/03/15 04:32:57;;;;;;;4.53;0.93;;;2.90;99.90;;;;;;5036332;28;20041;-71
2023/03/15 04:35:29;;;;;;;4.80;0.60;;;2.20;99.90;;;;;;5020574;28;20481;-72
2023/03/15 04:37:55;;;;;;;6.18;0.95;;;2.50;99.90;;;;;;5053775;28;20052;-72
2023/03/15 04:40:22;;;;;;;3.97;0.85;;;3.00;99.90;;;;;;5036430;28;20049;-71
2023/03/15 04:42:55;;;;;;;3.78;0.70;;;2.40;99.90;;;;;;5036050;28;20037;-72
2023/03/15 04:45:22;;;;;;;4.22;0.50;;;2.40;99.90;;;;;;5036472;28;20045;-71
2023/03/15 04:47:49;;;;;;;2.08;0.50;;;2.30;99.90;;;;;;5053690;28;20075;-72
2023/03/15 04:50:16;;;;;;;5.38;0.55;;;2.90;99.90;;;;;;5053581;28;20123;-72
2023/03/15 04:52:41;;;;;;;3.55;0.50;;;2.10;99.90;;;;;;5053510;28;20056;-72
2023/03/15 04:55:08;;;;;;;3.72;0.50;;;2.30;99.90;;;;;;5036382;28;20045;-72
2023/03/15 04:57:34;;;;;;;4.00;0.50;;;2.20;99.90;;;;;;5053552;28;20045;-72
2023/03/15 04:59:59;;;;;;;5.18;0.57;;;2.20;99.90;;;;;;5053473;28;20045;-72
2023/03/15 05:02:25;;;;;;;5.00;0.52;;;2.50;99.90;;;;;;5053349;28;20040;-72
2023/03/15 05:04:51;;;;;;;2.28;0.32;;;2.60;99.90;;;;;;5035645;28;20045;-72
2023/03/15 05:07:16;;;;;;;5.75;0.50;;;2.00;99.90;;;;;;5054008;28;20049;-72
2023/03/15 05:09:44;;;;;;;4.00;0.70;;;2.40;99.90;;;;;;5053943;28;20072;-71
2023/03/15 05:12:11;;;;;;;4.70;0.70;;;2.80;99.90;;;;;;5035826;28;20119;-72
2023/03/15 05:14:37;;;;;;;4.10;0.70;;;2.00;99.90;;;;;;5036047;28;20045;-71
2023/03/15 05:17:03;;;;;;;3.50;0.50;;;2.80;99.90;;;;;;5053369;28;20067;-72
2023/03/15 05:19:33;;;;;;;2.83;0.50;;;1.90;99.90;;;;;;5052884;28;20520;-71
2023/03/15 05:22:00;;;;;;;2.92;0.40;;;2.50;99.90;;;;;;5053187;28;20052;-72
2023/03/15 05:24:26;;;;;;;4.90;0.47;;;2.50;99.90;;;;;;5053259;28;20049;-72
2023/03/15 05:26:53;;;;;;;7.22;0.60;;;1.80;99.90;;;;;;5053260;28;20045;-72
2023/03/15 05:29:20;;;;;;;3.03;0.47;;;1.80;99.90;;;;;;5036028;28;20084;-71
2023/03/15 05:31:46;;;;;;;2.25;0.70;;;3.00;99.90;;;;;;5053205;28;20056;-72
2023/03/15 05:34:12;;;;;;;1.75;0.40;;;2.50;99.90;;;;;;5035589;28;20049;-71
2023/03/15 05:36:38;;;;;;;7.28;0.50;;;1.90;99.90;;;;;;5035562;28;20392;-72
2023/03/15 05:39:03;;;;;;;4.95;0.50;;;2.50;99.90;;;;;;5053208;28;20049;-71
2023/03/15 05:41:29;;;;;;;4.15;0.85;;;1.60;99.90;;;;;;5035535;28;20527;-72
2023/03/15 05:43:55;;;;;;;3.53;0.50;;;2.20;99.90;;;;;;5035877;28;20049;-71
2023/03/15 05:46:21;;;;;;;3.33;0.40;;;1.50;99.90;;;;;;5053028;28;20388;-72
2023/03/15 05:48:47;;;;;;;1.92;0.50;;;1.40;99.90;;;;;;5035977;28;20056;-72
2023/03/15 05:51:14;;;;;;;6.75;0.60;;;1.50;99.90;;;;;;5053034;28;20052;-72
2023/03/15 05:53:39;;;;;;;3.67;0.60;;;2.20;99.90;;;;;;5018970;28;20080;-71
2023/03/15 05:56:05;;;;;;;7.85;0.90;;;1.60;99.90;;;;;;5018921;28;20501;-71
2023/03/15 05:58:31;;;;;;;2.10;0.70;;;1.40;99.90;;;;;;5052992;28;20080;-72
2023/03/15 06:00:57;;;;;;;4.32;0.73;;;1.20;99.90;;;;;;5052779;28;20091;-72
2023/03/15 06:03:23;;;;;;;3.88;0.57;;;1.30;99.90;;;;;;5020287;28;20048;-71
2023/03/15 06:05:48;;;;;;;3.65;0.63;;;1.30;99.90;;;;;;5022804;28;20497;-72
2023/03/15 06:08:14;;;;;;;3.15;0.60;;;1.50;99.90;;;;;;5038836;28;20052;-71
2023/03/15 06:10:40;;;;;;;4.00;0.60;;;1.30;99.90;;;;;;5038815;28;20049;-71
2023/03/15 06:13:05;;;;;;;1.92;0.47;;;1.30;99.90;;;;;;5056365;28;20481;-71
2023/03/15 06:15:31;;;;;;;2.65;0.50;;;1.80;99.90;;;;;;5022349;28;20053;-72
2023/03/15 06:17:57;;;;;;;4.30;0.43;;;1.30;99.90;;;;;;5056368;28;20512;-72
2023/03/15 06:20:23;;;;;;;4.03;0.52;;;1.40;99.90;;;;;;5055894;28;20508;-72
2023/03/15 06:22:48;;;;;;;4.13;0.82;;;1.50;99.90;;;;;;5056434;28;20481;-71
2023/03/15 06:25:14;;;;;;;3.42;0.50;;;1.10;99.90;;;;;;5056213;28;20136;-71
2023/03/15 06:27:40;;;;;;;3.58;0.90;;;1.20;99.90;;;;;;5038413;28;20052;-71
2023/03/15 06:30:06;;;;;;;2.30;0.40;;;1.10;99.90;;;;;;5038644;28;20136;-72
2023/03/15 06:32:32;;;;;;;3.28;0.43;;;1.20;99.90;;;;;;5056102;28;20040;-72
2023/03/15 06:34:58;;;;;;;3.03;0.43;;;1.50;99.90;;;;;;5056325;28;20053;-72
2023/03/15 06:37:23;;;;;;;1.35;0.30;;;1.20;99.90;;;;;;5056042;28;20068;-72
2023/03/15 06:39:50;;;;;;;3.85;0.75;;;1.40;99.90;;;;;;5038644;28;20044;-71
2023/03/15 06:42:16;;;;;;;3.00;0.50;;;1.30;99.90;;;;;;5038548;28;20045;-72
2023/03/15 06:44:42;;;;;;;5.78;0.57;;;1.60;99.90;;;;;;5022193;28;20052;-71
2023/03/15 06:47:09;;;;;;;4.40;0.90;;;1.50;99.90;;;;;;5038281;28;20060;-72
2023/03/15 06:49:36;;;;;;;5.45;0.50;;;1.40;99.90;;;;;;5039060;28;20052;-72
2023/03/15 06:52:03;;;;;;;2.80;0.70;;;2.40;99.90;;;;;;5038049;28;20041;-72
2023/03/15 06:54:29;;;;;;;1.88;0.70;;;1.50;99.90;;;;;;5037940;28;20092;-72
2023/03/15 06:56:55;;;;;;;4.15;1.42;;;2.40;99.90;;;;;;5038876;28;20041;-72
2023/03/15 06:59:21;;;;;;;4.45;0.70;;;2.30;99.90;;;;;;5055601;28;20122;-72
2023/03/15 07:01:47;;;;;;;2.58;0.90;;;1.50;99.90;;;;;;5038090;28;20072;-72
2023/03/15 07:04:13;;;;;;;4.57;1.80;;;1.70;99.90;;;;;;5055525;28;20045;-71
2023/03/15 07:06:39;;;;;;;4.35;1.50;;;2.30;99.90;;;;;;5038211;28;20041;-72
2023/03/15 07:09:05;;;;;;;3.30;1.20;;;2.20;99.90;;;;;;5055417;28;20397;-72
2023/03/15 07:11:31;;;;;;;4.65;1.05;;;1.80;99.90;;;;;;5021311;28;20506;-72
2023/03/15 07:13:57;;;;;;;3.58;0.75;;;2.10;99.90;;;;;;5037604;28;20037;-72
2023/03/15 07:16:24;;;;;;;5.88;0.90;;;1.70;99.90;;;;;;5020690;28;20052;-72
2023/03/15 07:18:49;;;;;;;5.55;0.70;;;1.70;99.90;;;;;;5055734;28;20110;-71
2023/03/15 07:21:15;;;;;;;2.58;0.50;;;2.40;99.90;;;;;;5020978;28;20057;-71
2023/03/15 07:23:41;;;;;;;1.33;0.52;;;2.00;99.90;;;;;;5038351;28;20057;-72
2023/03/15 07:26:07;;;;;;;1.77;0.40;;;2.00;99.90;;;;;;5021201;28;20048;-72
2023/03/15 07:28:33;;;;;;;2.58;0.45;;;1.90;99.90;;;;;;5037304;28;20045;-72
2023/03/15 07:31:05;;;;;;;3.60;0.50;;;1.80;99.90;;;;;;5037279;28;20094;-71
2023/03/15 07:33:32;;;;;;;3.42;0.40;;;1.90;99.90;;;;;;5037361;28;20103;-72
2023/03/15 07:35:59;;;;;;;2.65;0.50;;;2.90;99.90;;;;;;5037422;28;20048;-71
2023/03/15 07:38:29;;;;;;;4.30;0.60;;;2.30;99.90;;;;;;5055060;28;20500;-70
2023/03/15 07:40:56;;;;;;;3.58;0.50;;;3.00;99.90;;;;;;5037871;28;20087;-71
2023/03/15 07:43:22;;;;;;;2.92;0.52;;;2.50;99.90;;;;;;5037091;28;20052;-72
2023/03/15 07:45:48;;;;;;;3.17;0.50;;;2.50;99.90;;;;;;5004228;28;20619;-72
2023/03/15 07:48:14;;;;;;;1.92;0.50;;;3.10;99.90;;;;;;5037344;28;20124;-71
2023/03/15 07:50:39;;;;;;;1.90;0.50;;;2.70;99.90;;;;;;5037038;28;20052;-71
2023/03/15 07:53:06;;;;;;;1.67;0.40;;;2.30;99.90;;;;;;5036860;28;20033;-72
2023/03/15 07:55:33;;;;;;;4.70;0.80;;;2.70;99.90;;;;;;5020468;28;20163;-71
2023/03/15 07:57:59;;;;;;;3.33;0.60;;;3.30;99.90;;;;;;5021392;28;20106;-71
2023/03/15 08:00:24;;;;;;;3.00;0.50;;;2.80;99.90;;;;;;5041084;28;20053;-70
2023/03/15 08:02:50;;;;;;;5.38;0.55;;;2.60;99.90;;;;;;5039242;28;20076;-70
2023/03/15 08:05:19;;;;;;;4.22;0.40;;;2.70;99.90;;;;;;5055052;28;20045;-73
2023/03/15 08:07:46;;;;;;;5.38;0.47;;;2.90;99.90;;;;;;5021742;28;20079;-73
2023/03/15 08:10:13;;;;;;;4.05;0.60;;;3.10;99.90;;;;;;5054674;28;20052;-75
2023/03/15 08:12:41;;;;;;;3.88;1.00;;;2.90;99.90;;;;;;5037030;28;20081;-83
2023/03/15 08:15:11;;;;;;;3.63;0.45;;;3.20;99.90;;;;;;5037635;28;20420;-73
2023/03/15 08:17:38;;;;;;;6.03;0.60;;;3.10;99.90;;;;;;5037541;28;20049;-73
2023/03/15 08:20:04;;;;;;;13.38;5.55;;;3.80;99.90;;;;;;5019963;28;20057;-73
2023/03/15 08:22:30;;;;;;;6.60;1.25;;;3.20;99.90;;;;;;5054431;28;20041;-78
2023/03/15 08:24:56;;;;;;;4.32;0.57;;;3.40;99.90;;;;;;5054270;28;20546;-74
2023/03/15 08:27:23;;;;;;;7.50;0.60;;;3.70;99.90;;;;;;5054039;28;20099;-75
2023/03/15 08:29:50;;;;;;;5.95;0.60;;;3.50;99.90;;;;;;5054142;28;20052;-74
2023/03/15 08:32:17;;;;;;;5.57;0.50;;;4.40;99.90;;;;;;5037086;28;20369;-72
2023/03/15 08:34:43;;;;;;;5.15;0.60;;;3.70;99.90;;;;;;5053707;28;20045;-72
2023/03/15 08:37:10;;;;;;;3.90;1.20;;;3.90;99.90;;;;;;5036667;28;20045;-73
2023/03/15 08:39:37;;;;;;;5.85;0.68;;;4.40;99.90;;;;;;5054251;28;20361;-74
2023/03/15 08:42:03;;;;;;;4.47;0.65;;;4.10;99.90;;;;;;5053834;28;20048;-74
2023/03/15 08:44:29;;;;;;;2.97;0.70;;;4.10;99.90;;;;;;5053906;28;20060;-73
2023/03/15 08:46:55;;;;;;;4.28;0.63;;;4.60;99.90;;;;;;5036499;28;20095;-69
2023/03/15 08:49:21;;;;;;;4.03;0.63;;;4.50;99.90;;;;;;5053403;28;20085;-72
2023/03/15 08:51:46;;;;;;;9.50;1.50;;;4.20;99.90;;;;;;5035878;28;20047;-75
2023/03/15 08:54:13;;;;;;;5.88;0.65;;;4.10;99.90;;;;;;5053756;28;20060;-72
2023/03/15 08:56:40;;;;;;;5.78;0.60;;;4.60;99.90;;;;;;5036001;28;20131;-72
2023/03/15 08:59:06;;;;;;;6.43;0.75;;;4.40;99.90;;;;;;5019941;28;20049;-73
2023/03/15 09:01:33;;;;;;;6.72;0.75;;;4.80;99.90;;;;;;5054359;28;20051;-74
2023/03/15 09:04:00;;;;;;;4.38;0.93;;;4.20;99.90;;;;;;5019813;28;20063;-75
2023/03/15 09:06:26;;;;;;;2.58;0.60;;;4.30;99.90;;;;;;5035774;28;20052;-71
2023/03/15 09:08:54;;;;;;;7.82;0.90;;;4.50;99.90;;;;;;5019595;28;20041;-73
2023/03/15 09:11:21;;;;;;;3.92;0.82;;;4.50;99.90;;;;;;5035957;28;20037;-71
2023/03/15 09:13:47;;;;;;;2.65;0.60;;;4.60;99.90;;;;;;5019796;28;20061;-72
2023/03/15 09:16:13;;;;;;;7.18;0.82;;;4.50;99.90;;;;;;5036232;28;20053;-71
2023/03/15 09:18:40;;;;;;;2.53;0.65;;;4.70;99.90;;;;;;5054073;28;20053;-71
2023/03/15 09:21:06;;;;;;;2.47;0.50;;;5.20;99.90;;;;;;5036331;28;20401;-73
2023/03/15 09:23:32;;;;;;;3.22;0.50;;;4.80;99.90;;;;;;5019336;28;20057;-71
2023/03/15 09:25:58;;;;;;;4.32;0.60;;;5.20;99.90;;;;;;5053653;28;20048;-72
2023/03/15 09:28:26;;;;;;;3.85;0.55;;;5.30;99.90;;;;;;5053296;28;20048;-74
2023/03/15 09:30:52;;;;;;;3.85;0.40;;;5.50;99.90;;;;;;5036071;28;20393;-75
2023/03/15 09:33:21;;;;;;;2.22;0.77;;;5.20;99.90;;;;;;5035786;28;20081;-72
2023/03/15 09:35:50;;;;;;;1.88;0.50;;;5.40;99.90;;;;;;5036511;28;20128;-72
2023/03/15 09:38:16;;;;;;;7.32;0.50;;;5.20;99.90;;;;;;5037166;28;20049;-71
2023/03/15 09:40:44;;;;;;;1.90;0.60;;;5.40;99.90;;;;;;5023960;28;20087;-76
2023/03/15 09:43:19;;;;;;;4.22;0.50;;;5.10;99.90;;;;;;5039326;28;20052;-73
2023/03/15 09:45:59;;;;;;;5.18;0.50;;;5.20;99.90;;;;;;5039635;28;20053;-74
2023/03/15 09:48:51;;;;;;;6.10;1.35;;;5.20;99.90;;;;;;5057763;28;20053;-72
2023/03/15 09:51:34;;;;;;;3.22;0.50;;;5.60;99.90;;;;;;5057924;28;20378;-73
2023/03/15 09:54:11;;;;;;;4.32;0.52;;;5.20;99.90;;;;;;5039639;28;20123;-74
2023/03/15 09:56:58;;;;;;;1.50;0.35;;;5.30;99.90;;;;;;5057015;28;20052;-74
2023/03/15 09:59:29;;;;;;;3.85;0.40;;;5.40;99.90;;;;;;5057429;28;20385;-74
2023/03/15 10:01:56;;;;;;;2.92;0.50;;;5.70;99.90;;;;;;5039787;28;20556;-74
2023/03/15 10:04:36;;;;;;;3.42;0.60;;;5.70;99.90;;;;;;5038986;28;20051;-73
2023/03/15 10:07:02;;;;;;;3.00;0.40;;;5.50;99.90;;;;;;5057243;28;20049;-73
2023/03/15 10:09:34;;;;;;;5.68;0.70;;;5.40;99.90;;;;;;5056712;28;20048;-72
2023/03/15 10:12:19;;;;;;;5.75;1.27;;;5.80;99.90;;;;;;5056948;28;20438;-74
2023/03/15 10:14:47;;;;;;;4.30;0.50;;;5.60;99.90;;;;;;5023329;28;20045;-71
2023/03/15 10:17:19;;;;;;;1.42;0.35;;;5.80;99.90;;;;;;5039296;28;20052;-73
2023/03/15 10:19:51;;;;;;;2.03;0.40;;;6.30;99.90;;;;;;5056682;28;20135;-76
2023/03/15 10:22:37;;;;;;;6.40;0.60;;;6.10;99.90;;;;;;5057272;28;20107;-72
2023/03/15 10:25:18;;;;;;;4.32;0.57;;;6.30;99.90;;;;;;5038392;28;20126;-72
2023/03/15 10:27:52;;;;;;;4.35;0.50;;;5.90;99.90;;;;;;5056375;28;20052;-73
2023/03/15 10:30:21;;;;;;;2.63;0.60;;;6.30;99.90;;;;;;5056904;28;20049;-72
2023/03/15 10:32:57;;;;;;;5.47;0.85;;;6.10;99.90;;;;;;5021946;28;20052;-73
2023/03/15 10:35:23;;;;;;;2.50;0.40;;;6.20;99.90;;;;;;5039364;28;20370;-70
2023/03/15 10:37:49;;;;;;;3.13;0.47;;;6.20;99.90;;;;;;5056078;28;20127;-74
2023/03/15 10:40:49;;;;;;;5.95;1.08;;;6.40;99.90;;;;;;5038370;28;20526;-74
2023/03/15 10:43:35;;;;;;;5.28;0.70;;;6.40;99.90;;;;;;5038855;28;20053;-74
2023/03/15 10:46:11;;;;;;;5.15;0.60;;;6.60;99.90;;;;;;5056324;28;20073;-72
2023/03/15 10:48:52;;;;;;;6.88;0.73;;;6.70;99.90;;;;;;5039067;28;20057;-69
2023/03/15 10:51:28;;;;;;;4.40;0.70;;;6.70;99.90;;;;;;5056020;28;20045;-71
2023/03/15 10:54:14;;;;;;;5.03;0.45;;;6.40;99.90;;;;;;5037628;28;20056;-75
2023/03/15 10:57:04;;;;;;;2.35;0.40;;;6.40;99.90;;;;;;5055706;28;20049;-72
2023/03/15 10:59:33;;;;;;;3.72;0.52;;;6.40;99.90;;;;;;5055775;28;20136;-74
2023/03/15 11:02:11;;;;;;;4.72;0.77;;;6.40;99.90;;;;;;5038211;28;20120;-72
2023/03/15 11:05:11;;;;;;;4.13;0.50;;;6.30;99.90;;;;;;5055622;28;20053;-72
2023/03/15 11:07:37;;;;;;;2.35;0.63;;;6.60;99.90;;;;;;5008842;28;20045;-73
2023/03/15 11:10:05;;;;;;;3.70;0.88;;;6.80;99.90;;;;;;5038205;28;20045;-72
2023/03/15 11:12:33;;;;;;;1.35;0.40;;;6.40;99.90;;;;;;5037635;28;20047;-71
2023/03/15 11:15:09;;;;;;;5.55;0.40;;;6.80;99.90;;;;;;5055300;28;20051;-73
2023/03/15 11:17:44;;;;;;;3.40;0.63;;;6.60;99.90;;;;;;5021536;28;20048;-74
2023/03/15 11:20:30;;;;;;;1.95;0.30;;;6.80;99.90;;;;;;5037134;28;20057;-71
2023/03/15 11:23:01;;;;;;;0.68;0.30;;;6.60;99.90;;;;;;5055391;28;20087;-73
2023/03/15 11:25:32;;;;;;;1.30;0.40;;;6.50;99.90;;;;;;5055311;28;20067;-75
2023/03/15 11:27:58;;;;;;;4.97;0.50;;;6.80;99.90;;;;;;5021147;28;20053;-74
2023/03/15 11:30:31;;;;;;;5.60;0.40;;;7.00;99.90;;;;;;5055072;28;20119;-73
2023/03/15 11:33:08;;;;;;;5.90;0.50;;;6.70;99.90;;;;;;5055509;28;20052;-72
2023/03/15 11:35:48;;;;;;;4.53;0.50;;;6.80;99.90;;;;;;5059110;28;20060;-72
2023/03/15 11:38:36;;;;;;;2.50;0.32;;;6.80;99.90;;;;;;5038359;28;20115;-72
2023/03/15 11:41:29;;;;;;;3.28;0.50;;;6.70;99.90;;;;;;5055515;28;20055;-71
2023/03/15 11:44:12;;;;;;;1.90;0.30;;;7.00;99.90;;;;;;5026450;28;20451;-71
2023/03/15 11:46:48;;;;;;;1.73;0.43;;;7.10;99.90;;;;;;5054893;28;20049;-72
2023/03/15 11:49:29;;;;;;;2.42;0.45;;;7.10;99.90;;;;;;5038013;28;20057;-72
2023/03/15 11:51:56;;;;;;;2.65;0.40;;;7.30;99.90;;;;;;5037063;28;20124;-72
2023/03/15 11:54:27;;;;;;;1.52;0.40;;;7.30;99.90;;;;;;5036585;28;20056;-71
2023/03/15 11:57:02;;;;;;;3.03;0.50;;;7.40;99.90;;;;;;5037938;28;20044;-72
2023/03/15 11:59:35;;;;;;;2.97;0.60;;;7.40;99.90;;;;;;5021791;28;20057;-72
2023/03/15 12:02:13;;;;;;;4.38;0.50;;;7.40;99.90;;;;;;5037149;28;20053;-75
2023/03/15 12:04:44;;;;;;;3.40;0.50;;;7.70;99.90;;;;;;5037145;28;20045;-73
2023/03/15 12:07:29;;;;;;;3.45;0.65;;;7.40;99.90;;;;;;5055081;28;20052;-74
2023/03/15 12:09:56;;;;;;;3.70;0.50;;;7.40;99.90;;;;;;5055001;28;20056;-73
2023/03/15 12:12:24;;;;;;;3.58;0.52;;;7.70;99.90;;;;;;5020650;28;20052;-72
2023/03/15 12:15:18;;;;;;;2.97;0.60;;;7.40;99.90;;;;;;5036752;28;20103;-73
2023/03/15 12:17:55;;;;;;;2.22;0.73;;;7.50;99.90;;;;;;5054265;28;20052;-73
2023/03/15 12:20:37;;;;;;;2.95;0.40;;;7.40;99.90;;;;;;5053904;28;20634;-73
2023/03/15 12:23:03;;;;;;;4.23;0.70;;;7.70;99.90;;;;;;5054719;28;20052;-71
2023/03/15 12:25:37;;;;;;;1.92;0.52;;;7.50;99.90;;;;;;5036458;28;20045;-74
2023/03/15 12:28:18;;;;;;;2.45;0.40;;;7.70;99.90;;;;;;5054933;28;20067;-73
2023/03/15 12:30:50;;;;;;;2.58;0.70;;;7.60;99.90;;;;;;5036381;28;20053;-71
2023/03/15 12:33:19;;;;;;;2.25;0.60;;;7.70;99.90;;;;;;5054067;28;20056;-72
2023/03/15 12:35:45;;;;;;;3.25;0.50;;;7.50;99.90;;;;;;5020254;28;20045;-72
2023/03/15 12:38:24;;;;;;;2.30;0.40;;;7.50;99.90;;;;;;5054041;28;20055;-72
2023/03/15 12:40:55;;;;;;;4.28;0.65;;;7.60;99.90;;;;;;5054233;28;20052;-74
2023/03/15 12:43:44;;;;;;;2.88;0.40;;;7.50;99.90;;;;;;5035927;28;20045;-74
2023/03/15 12:46:35;;;;;;;5.82;0.60;;;7.40;99.90;;;;;;5036595;28;20159;-72
2023/03/15 12:49:11;;;;;;;1.35;0.35;;;7.30;99.90;;;;;;5053758;28;20095;-73
2023/03/15 12:51:54;;;;;;;2.28;0.77;;;7.50;99.90;;;;;;5053719;28;20056;-73
2023/03/15 12:54:23;;;;;;;3.47;0.50;;;7.30;99.90;;;;;;5054011;28;20077;-72
2023/03/15 12:57:00;;;;;;;2.78;0.50;;;7.40;99.90;;;;;;5053917;28;20123;-72
2023/03/15 12:59:29;;;;;;;3.53;0.40;;;7.50;99.90;;;;;;5035954;28;20084;-71
2023/03/15 13:01:57;;;;;;;3.13;0.50;;;7.60;99.90;;;;;;5035689;28;20496;-72
2023/03/15 13:04:26;;;;;;;1.45;0.30;;;7.70;99.90;;;;;;5035830;28;20124;-73
2023/03/15 13:07:23;;;;;;;1.17;0.30;;;7.80;99.90;;;;;;5036158;28;20088;-75
2023/03/15 13:09:59;;;;;;;1.70;0.30;;;7.80;99.90;;;;;;5039912;28;20432;-71
2023/03/15 13:12:44;;;;;;;3.13;0.50;;;7.90;99.90;;;;;;5054435;28;20443;-73